Huvudsida
METAR-TAF:

METAR-TAF

Flygplatser :

Tammerfors-Birkala flygplats

Tammerfors, Finland

latitud: 61-25N, longitud: 023-35E, höjd: 112 m

Aktuellt väderrapport

Denna rapport gjordes för 44 minuter sedan, klockan 19:50 UTC
Vind 2 kt från sydväst
Temperatur -6°C
Fuktighet 93%
Tryck 1037 hPa
Sikt 10 km eller mer
Inga moln under 1 500 m eller inga cumulonimbus

METAR: EFTP 191950Z AUTO 22002KT CAVOK M06/M07 Q1037

Tid: 22:34 (20:34 UTC)

Väderprognos

Denna rapport gjordes för 3 timmar och 9 minuter sedan, klockan 17:25 UTC
Prognos gäller från 19 kl. 18 UTC till 20 kl. 18 UTC
Vind 2 kt varierande vindriktning
Sikt 10 km eller mer
Inga moln under 1 500 m eller inga cumulonimbus
Sannolikhet 30%
från 19 kl. 19 UTC till 19 kl. 23 UTC
Brutna moln på en höjd av 1300 ft

TAF: EFTP 191725Z 1918/2018 VRB02KT CAVOK PROB30 1919/1923 BKN013

Aktuella väderrapporter och prognoser från 4000 flygplatser (METAR- och TAF-rapporter).

De tillgängliga stationerna syns som gula och röda prickar på kartan.

För musen över prickarna för att se namnen på stationerna.

Klicka sedan för att få väderrapporter och prognoser.

För att ändra kartan: Klicka på de gröna knapparna med ett svart kors på för att zooma in; den gröna knappen med ett streck på för att zooma ut; eller på de gröna pilarna för angränsande kartor.


METAR-TAF: